createdAt,value
2022-08-28T00:01:12.606Z,6.60
2022-08-28T00:03:44.708Z,6.90
2022-08-28T00:06:16.550Z,6.60
2022-08-28T00:08:48.468Z,6.17
2022-08-28T00:11:21.218Z,6.70
2022-08-28T00:13:52.964Z,6.60
2022-08-28T00:16:30.430Z,7.13
2022-08-28T00:19:02.344Z,6.77
2022-08-28T00:21:34.198Z,6.60
2022-08-28T00:24:06.153Z,6.73
2022-08-28T00:26:57.037Z,6.83
2022-08-28T00:29:29.542Z,6.80
2022-08-28T00:32:01.658Z,7.10
2022-08-28T00:34:33.847Z,7.10
2022-08-28T00:37:06.112Z,7.27
2022-08-28T00:39:37.883Z,7.00
2022-08-28T00:42:10.252Z,6.93
2022-08-28T00:44:41.979Z,7.20
2022-08-28T00:47:14.007Z,7.60
2022-08-28T00:49:52.608Z,7.57
2022-08-28T00:52:26.864Z,7.80
2022-08-28T00:55:24.815Z,7.23
2022-08-28T00:57:59.416Z,8.03
2022-08-28T01:00:34.971Z,7.40
2022-08-28T01:03:07.391Z,8.03
2022-08-28T01:05:39.812Z,7.90
2022-08-28T01:08:11.892Z,8.33
2022-08-28T01:10:47.676Z,8.17
2022-08-28T01:13:20.584Z,7.87
2022-08-28T01:15:53.843Z,8.37
2022-08-28T01:18:27.612Z,7.87
2022-08-28T01:21:20.269Z,7.67
2022-08-28T01:24:08.334Z,8.30
2022-08-28T01:26:40.355Z,8.13
2022-08-28T01:29:12.520Z,8.30
2022-08-28T01:31:44.326Z,9.20
2022-08-28T01:34:16.197Z,8.47
2022-08-28T01:36:48.510Z,8.80
2022-08-28T01:39:23.374Z,8.10
2022-08-28T01:41:56.996Z,8.80
2022-08-28T01:44:28.783Z,9.30
2022-08-28T01:47:00.513Z,9.37
2022-08-28T01:49:32.309Z,9.07
2022-08-28T01:52:04.721Z,9.37
2022-08-28T01:54:36.587Z,8.90
2022-08-28T01:57:10.804Z,9.70
2022-08-28T01:59:42.588Z,8.07
2022-08-28T02:02:15.297Z,8.37
2022-08-28T02:04:48.354Z,8.83
2022-08-28T02:07:20.474Z,8.60
2022-08-28T02:09:52.672Z,8.80
2022-08-28T02:12:25.142Z,8.67
2022-08-28T02:14:56.868Z,8.23
2022-08-28T02:17:28.628Z,8.43
2022-08-28T02:20:00.366Z,8.27
2022-08-28T02:22:32.415Z,8.60
2022-08-28T02:25:05.394Z,8.40
2022-08-28T02:27:37.944Z,8.73
2022-08-28T02:30:11.878Z,8.40
2022-08-28T02:32:45.252Z,9.23
2022-08-28T02:35:18.808Z,8.63
2022-08-28T02:37:51.644Z,9.47
2022-08-28T02:40:26.431Z,9.07
2022-08-28T02:42:58.240Z,8.80
2022-08-28T02:45:30.003Z,8.77
2022-08-28T02:48:02.288Z,8.27
2022-08-28T02:50:34.022Z,9.00
2022-08-28T02:53:05.740Z,8.47
2022-08-28T02:55:37.967Z,8.63
2022-08-28T02:58:10.152Z,8.57
2022-08-28T03:00:42.015Z,8.97
2022-08-28T03:03:13.905Z,9.00
2022-08-28T03:05:45.606Z,8.90
2022-08-28T03:08:17.366Z,9.53
2022-08-28T03:10:49.099Z,8.93
2022-08-28T03:13:26.618Z,9.23
2022-08-28T03:15:59.645Z,9.90
2022-08-28T03:18:32.995Z,10.00
2022-08-28T03:21:04.862Z,9.87
2022-08-28T03:23:37.410Z,9.33
2022-08-28T03:26:12.588Z,9.40
2022-08-28T03:28:47.314Z,9.37
2022-08-28T03:31:23.558Z,10.27
2022-08-28T03:33:56.255Z,10.37
2022-08-28T03:36:29.375Z,9.10
2022-08-28T03:39:04.847Z,9.90
2022-08-28T03:41:36.875Z,9.57
2022-08-28T03:44:09.259Z,9.60
2022-08-28T03:46:41.018Z,9.63
2022-08-28T03:49:13.448Z,8.20
2022-08-28T03:51:45.274Z,9.93
2022-08-28T03:54:17.214Z,9.60
2022-08-28T03:56:48.919Z,9.47
2022-08-28T03:59:21.478Z,9.27
2022-08-28T04:01:57.920Z,9.10
2022-08-28T04:04:30.127Z,10.57
2022-08-28T04:07:01.837Z,9.87
2022-08-28T04:09:33.623Z,10.03
2022-08-28T04:12:06.415Z,10.30
2022-08-28T04:14:38.420Z,9.80
2022-08-28T04:17:10.257Z,10.97
2022-08-28T04:19:43.380Z,9.87
2022-08-28T04:22:15.136Z,10.37
2022-08-28T04:24:46.967Z,11.07
2022-08-28T04:27:18.671Z,11.40
2022-08-28T04:29:50.437Z,11.47
2022-08-28T04:32:23.295Z,11.30
2022-08-28T04:34:55.058Z,10.90
2022-08-28T04:37:27.896Z,11.60
2022-08-28T04:39:59.836Z,10.77
2022-08-28T04:42:31.839Z,10.30
2022-08-28T04:45:04.603Z,10.47
2022-08-28T04:47:37.929Z,10.50
2022-08-28T04:50:11.518Z,11.60
2022-08-28T04:52:43.497Z,11.33
2022-08-28T04:55:15.254Z,12.03
2022-08-28T04:57:50.014Z,11.30
2022-08-28T05:00:23.761Z,11.57
2022-08-28T05:02:55.481Z,11.67
2022-08-28T05:05:27.213Z,12.23
2022-08-28T05:07:58.944Z,11.00
2022-08-28T05:10:30.654Z,12.33
2022-08-28T05:13:02.412Z,11.70
2022-08-28T05:15:38.038Z,12.97
2022-08-28T05:18:10.054Z,12.70
2022-08-28T05:20:44.048Z,12.33
2022-08-28T05:23:16.907Z,12.90
2022-08-28T05:25:48.734Z,13.13
2022-08-28T05:28:20.858Z,13.23
2022-08-28T05:30:53.053Z,11.67
2022-08-28T05:33:25.035Z,12.20
2022-08-28T05:35:56.772Z,12.93
2022-08-28T05:38:28.694Z,12.70
2022-08-28T05:41:01.422Z,12.20
2022-08-28T05:43:33.220Z,12.80
2022-08-28T05:46:10.448Z,12.93
2022-08-28T05:48:42.998Z,12.17
2022-08-28T05:51:18.197Z,12.93
2022-08-28T05:53:51.171Z,12.47
2022-08-28T05:56:34.072Z,11.83
2022-08-28T05:59:06.841Z,11.70
2022-08-28T06:01:42.098Z,11.53
2022-08-28T06:04:17.739Z,11.77
2022-08-28T06:06:49.919Z,11.70
2022-08-28T06:09:28.964Z,11.07
2022-08-28T06:12:02.753Z,11.80
2022-08-28T06:14:34.901Z,12.07
2022-08-28T06:17:07.112Z,10.53
2022-08-28T06:19:41.522Z,11.50
2022-08-28T06:22:14.764Z,11.10
2022-08-28T06:24:46.516Z,11.27
2022-08-28T06:27:18.240Z,12.23
2022-08-28T06:29:50.035Z,11.83
2022-08-28T06:32:21.788Z,11.10
2022-08-28T06:34:53.939Z,10.93
2022-08-28T06:37:25.641Z,11.47
2022-08-28T06:39:57.461Z,16.40
2022-08-28T06:42:31.175Z,11.63
2022-08-28T06:45:03.143Z,10.97
2022-08-28T06:47:34.876Z,11.27
2022-08-28T06:50:06.987Z,12.77
2022-08-28T06:52:38.773Z,12.80
2022-08-28T06:55:13.548Z,18.63
2022-08-28T06:57:47.249Z,11.03
2022-08-28T07:00:19.025Z,11.63
2022-08-28T07:02:50.895Z,11.77
2022-08-28T07:05:23.061Z,10.53
2022-08-28T07:07:55.807Z,8.87
2022-08-28T07:10:31.290Z,8.50
2022-08-28T07:13:04.880Z,10.30
2022-08-28T07:15:41.847Z,9.23
2022-08-28T07:18:14.193Z,10.23
2022-08-28T07:20:54.479Z,8.57
2022-08-28T07:23:27.658Z,8.20
2022-08-28T07:25:59.841Z,8.57
2022-08-28T07:28:31.839Z,7.60
2022-08-28T07:31:07.744Z,7.67
2022-08-28T07:33:40.433Z,6.53
2022-08-28T07:36:28.803Z,8.00
2022-08-28T07:39:01.371Z,6.53
2022-08-28T07:41:35.538Z,7.03
2022-08-28T07:44:28.329Z,7.50
2022-08-28T07:47:04.035Z,7.50
2022-08-28T07:49:36.028Z,7.93
2022-08-28T07:52:09.487Z,7.50
2022-08-28T07:54:41.247Z,7.60
2022-08-28T07:57:12.978Z,7.23
2022-08-28T07:59:44.916Z,6.97
2022-08-28T08:02:16.751Z,7.20
2022-08-28T08:04:48.560Z,7.87
2022-08-28T08:07:20.519Z,8.43
2022-08-28T08:09:52.261Z,8.23
2022-08-28T08:12:24.051Z,8.23
2022-08-28T08:14:59.588Z,7.80
2022-08-28T08:17:31.313Z,7.40
2022-08-28T08:20:04.024Z,7.10
2022-08-28T08:22:36.063Z,7.70
2022-08-28T08:25:08.751Z,8.07
2022-08-28T08:27:43.083Z,9.07
2022-08-28T08:30:15.215Z,9.13
2022-08-28T08:32:46.930Z,7.97
2022-08-28T08:35:18.886Z,7.40
2022-08-28T08:37:50.592Z,7.13
2022-08-28T08:40:23.287Z,6.87
2022-08-28T08:42:58.035Z,6.40
2022-08-28T08:45:31.939Z,6.17
2022-08-28T08:48:03.815Z,7.73
2022-08-28T08:50:36.065Z,6.53
2022-08-28T08:53:20.046Z,7.67
2022-08-28T08:55:57.004Z,5.37
2022-08-28T08:58:41.826Z,6.60
2022-08-28T09:01:28.803Z,4.63
2022-08-28T09:04:39.802Z,5.23
2022-08-28T09:07:19.596Z,5.63
2022-08-28T09:09:53.408Z,4.60
2022-08-28T09:12:29.342Z,5.30
2022-08-28T09:15:28.714Z,5.17
2022-08-28T09:18:18.282Z,6.27
2022-08-28T09:20:52.616Z,4.90
2022-08-28T09:23:26.881Z,4.60
2022-08-28T09:26:12.580Z,4.97
2022-08-28T09:28:50.646Z,4.40
2022-08-28T09:31:38.894Z,4.10
2022-08-28T09:34:27.430Z,4.73
2022-08-28T09:37:00.976Z,4.80
2022-08-28T09:39:35.791Z,5.43
2022-08-28T09:42:41.587Z,4.73
2022-08-28T09:45:16.313Z,4.63
2022-08-28T09:47:55.741Z,4.70
2022-08-28T09:50:43.450Z,5.17
2022-08-28T09:53:19.293Z,5.67
2022-08-28T09:56:09.753Z,5.20
2022-08-28T09:58:49.750Z,4.63
2022-08-28T10:01:36.413Z,5.40
2022-08-28T10:04:11.292Z,4.70
2022-08-28T10:07:03.848Z,4.73
2022-08-28T10:09:46.779Z,5.23
2022-08-28T10:12:34.632Z,5.47
2022-08-28T10:15:18.003Z,5.00
2022-08-28T10:18:09.336Z,5.63
2022-08-28T10:21:04.674Z,5.87
2022-08-28T10:24:07.808Z,5.37
2022-08-28T10:26:45.554Z,4.37
2022-08-28T10:29:17.228Z,9.37
2022-08-28T10:32:22.303Z,3.80
2022-08-28T10:35:07.959Z,4.57
2022-08-28T10:38:08.712Z,4.33
2022-08-28T10:41:03.118Z,4.47
2022-08-28T10:44:02.352Z,3.83
2022-08-28T10:46:41.572Z,3.97
2022-08-28T10:49:30.063Z,4.63
2022-08-28T10:52:16.083Z,3.97
2022-08-28T10:54:53.164Z,4.20
2022-08-28T10:57:40.125Z,4.07
2022-08-28T11:00:16.891Z,4.03
2022-08-28T11:03:02.154Z,3.67
2022-08-28T11:05:49.417Z,4.17
2022-08-28T11:08:30.252Z,3.70
2022-08-28T11:11:03.994Z,3.50
2022-08-28T11:13:57.730Z,3.83
2022-08-28T11:16:30.189Z,3.27
2022-08-28T11:19:31.634Z,3.80
2022-08-28T11:22:29.537Z,3.07
2022-08-28T11:25:26.532Z,3.50
2022-08-28T11:28:44.571Z,3.67
2022-08-28T11:31:18.166Z,3.70
2022-08-28T11:34:02.604Z,3.47
2022-08-28T11:36:34.302Z,4.30
2022-08-28T11:39:20.023Z,3.50
2022-08-28T11:42:10.065Z,3.67
2022-08-28T11:44:44.759Z,3.30
2022-08-28T11:47:43.338Z,3.70
2022-08-28T11:50:24.419Z,3.50
2022-08-28T11:53:41.565Z,3.63
2022-08-28T11:56:31.199Z,3.43
2022-08-28T11:59:09.868Z,3.70
2022-08-28T12:01:41.878Z,3.60
2022-08-28T12:04:24.370Z,3.17
2022-08-28T12:07:14.139Z,3.47
2022-08-28T12:09:48.730Z,3.30
2022-08-28T12:12:23.557Z,3.53
2022-08-28T12:14:55.299Z,3.77
2022-08-28T12:17:40.398Z,3.83
2022-08-28T12:20:44.337Z,3.60
2022-08-28T12:23:34.763Z,3.10
2022-08-28T12:26:23.196Z,3.83
2022-08-28T12:28:58.892Z,3.30
2022-08-28T12:32:18.641Z,3.10
2022-08-28T12:34:59.507Z,3.20
2022-08-28T12:37:50.882Z,3.50
2022-08-28T12:40:30.366Z,3.27
2022-08-28T12:43:05.321Z,2.90
2022-08-28T12:45:48.612Z,3.13
2022-08-28T12:48:30.784Z,3.20
2022-08-28T12:51:12.544Z,3.40
2022-08-28T12:53:47.620Z,3.27
2022-08-28T12:56:21.757Z,2.90
2022-08-28T12:58:53.551Z,2.90
2022-08-28T13:01:31.337Z,3.33
2022-08-28T13:04:07.897Z,3.30
2022-08-28T13:06:42.206Z,3.40
2022-08-28T13:09:22.031Z,3.50
2022-08-28T13:11:53.996Z,3.30
2022-08-28T13:14:41.882Z,3.43
2022-08-28T13:17:34.914Z,2.93
2022-08-28T13:20:07.458Z,3.20
2022-08-28T13:22:42.028Z,3.10
2022-08-28T13:25:29.536Z,3.53
2022-08-28T13:28:15.361Z,3.10
2022-08-28T13:30:58.371Z,3.17
2022-08-28T13:33:30.214Z,3.27
2022-08-28T13:36:20.860Z,3.10
2022-08-28T13:38:52.794Z,3.00
2022-08-28T13:41:24.582Z,3.43
2022-08-28T13:43:56.326Z,3.20
2022-08-28T13:46:28.338Z,3.07
2022-08-28T13:49:00.664Z,3.50
2022-08-28T13:51:33.459Z,3.30
2022-08-28T13:54:11.233Z,3.50
2022-08-28T13:56:44.651Z,3.53
2022-08-28T13:59:16.910Z,3.30
2022-08-28T14:02:08.330Z,3.10
2022-08-28T14:04:40.528Z,3.20
2022-08-28T14:07:13.346Z,3.43
2022-08-28T14:09:45.114Z,3.57
2022-08-28T14:12:16.931Z,3.50
2022-08-28T14:14:48.811Z,3.40
2022-08-28T14:17:21.463Z,3.30
2022-08-28T14:19:53.220Z,3.47
2022-08-28T14:22:24.967Z,3.17
2022-08-28T14:24:56.876Z,3.60
2022-08-28T14:27:28.714Z,3.90
2022-08-28T14:30:01.467Z,3.43
2022-08-28T14:32:33.959Z,3.00
2022-08-28T14:35:06.463Z,3.57
2022-08-28T14:37:38.246Z,3.23
2022-08-28T14:40:12.649Z,3.17
2022-08-28T14:42:44.440Z,2.97
2022-08-28T14:45:16.213Z,3.13
2022-08-28T14:47:47.970Z,3.23
2022-08-28T14:50:19.716Z,3.03
2022-08-28T14:52:51.446Z,3.17
2022-08-28T14:55:23.215Z,3.43
2022-08-28T14:57:54.949Z,2.93
2022-08-28T15:00:26.685Z,3.03
2022-08-28T15:02:59.885Z,3.17
2022-08-28T15:05:31.900Z,3.00
2022-08-28T15:08:10.895Z,2.80
2022-08-28T15:10:43.659Z,3.50
2022-08-28T15:13:15.481Z,2.90
2022-08-28T15:15:47.479Z,2.80
2022-08-28T15:18:19.220Z,2.87
2022-08-28T15:20:50.936Z,3.00
2022-08-28T15:23:23.030Z,2.73
2022-08-28T15:25:54.912Z,2.60
2022-08-28T15:28:26.643Z,2.70
2022-08-28T15:30:58.423Z,2.90
2022-08-28T15:33:30.155Z,2.50
2022-08-28T15:36:02.012Z,2.60
2022-08-28T15:38:53.988Z,2.57
2022-08-28T15:41:29.468Z,2.80
2022-08-28T15:44:02.368Z,2.90
2022-08-28T15:46:34.913Z,2.80
2022-08-28T15:49:09.256Z,2.83
2022-08-28T15:51:41.343Z,2.93
2022-08-28T15:54:13.720Z,2.53
2022-08-28T15:56:46.475Z,2.40
2022-08-28T15:59:22.091Z,2.63
2022-08-28T16:01:56.051Z,2.60
2022-08-28T16:04:27.859Z,2.50
2022-08-28T16:07:00.640Z,3.23
2022-08-28T16:09:32.866Z,2.97
2022-08-28T16:12:04.928Z,2.70
2022-08-28T16:14:36.695Z,2.90
2022-08-28T16:17:10.634Z,2.47
2022-08-28T16:19:43.424Z,2.37
2022-08-28T16:22:17.502Z,2.70
2022-08-28T16:24:49.361Z,2.47
2022-08-28T16:27:21.595Z,2.83
2022-08-28T16:29:53.349Z,2.90
2022-08-28T16:32:26.426Z,2.90
2022-08-28T16:34:58.458Z,3.10
2022-08-28T16:37:39.764Z,2.87
2022-08-28T16:40:14.879Z,2.80
2022-08-28T16:42:51.658Z,3.13
2022-08-28T16:45:24.047Z,2.87
2022-08-28T16:47:55.870Z,2.80
2022-08-28T16:50:31.618Z,3.00
2022-08-28T16:53:06.891Z,2.80
2022-08-28T16:55:40.408Z,2.73
2022-08-28T16:58:16.704Z,2.57
2022-08-28T17:00:52.783Z,2.50
2022-08-28T17:03:26.912Z,2.77
2022-08-28T17:06:03.012Z,2.27
2022-08-28T17:08:34.787Z,2.73
2022-08-28T17:11:06.806Z,2.50
2022-08-28T17:13:39.380Z,7.33
2022-08-28T17:16:12.066Z,3.30
2022-08-28T17:18:47.452Z,2.60
2022-08-28T17:21:43.102Z,2.67
2022-08-28T17:24:14.903Z,3.00
2022-08-28T17:26:46.741Z,3.30
2022-08-28T17:29:18.536Z,3.40
2022-08-28T17:31:50.942Z,2.53
2022-08-28T17:34:25.775Z,2.60
2022-08-28T17:37:01.774Z,2.93
2022-08-28T17:39:33.543Z,2.83
2022-08-28T17:42:06.087Z,2.20
2022-08-28T17:44:37.906Z,2.80
2022-08-28T17:47:09.847Z,2.70
2022-08-28T17:49:41.643Z,3.07
2022-08-28T17:52:13.783Z,2.80
2022-08-28T17:54:45.539Z,2.40
2022-08-28T17:57:17.433Z,2.93
2022-08-28T17:59:49.188Z,2.70
2022-08-28T18:02:20.947Z,2.93
2022-08-28T18:04:53.712Z,2.67
2022-08-28T18:07:25.522Z,2.90
2022-08-28T18:09:57.510Z,2.47
2022-08-28T18:12:29.359Z,3.00
2022-08-28T18:15:01.179Z,3.30
2022-08-28T18:17:32.944Z,2.80
2022-08-28T18:20:08.334Z,3.23
2022-08-28T18:22:40.162Z,3.23
2022-08-28T18:25:32.945Z,2.70
2022-08-28T18:28:05.804Z,2.70
2022-08-28T18:30:37.606Z,3.07
2022-08-28T18:33:15.232Z,3.40
2022-08-28T18:35:49.483Z,3.00
2022-08-28T18:38:22.857Z,3.20
2022-08-28T18:40:55.887Z,2.80
2022-08-28T18:43:27.676Z,2.70
2022-08-28T18:46:01.318Z,3.23
2022-08-28T18:48:33.510Z,3.27
2022-08-28T18:51:07.757Z,3.10
2022-08-28T18:53:43.386Z,2.73
2022-08-28T18:56:16.130Z,3.30
2022-08-28T18:58:48.740Z,2.83
2022-08-28T19:01:20.943Z,3.07
2022-08-28T19:03:54.464Z,2.80
2022-08-28T19:06:26.291Z,3.10
2022-08-28T19:08:58.010Z,3.10
2022-08-28T19:11:30.211Z,3.03
2022-08-28T19:14:03.906Z,3.40
2022-08-28T19:16:35.960Z,3.23
2022-08-28T19:19:08.188Z,3.03
2022-08-28T19:21:41.140Z,3.20
2022-08-28T19:24:16.299Z,3.30
2022-08-28T19:26:48.743Z,2.97
2022-08-28T19:29:20.477Z,3.20
2022-08-28T19:31:52.478Z,3.33
2022-08-28T19:34:24.821Z,3.17
2022-08-28T19:36:56.549Z,3.00
2022-08-28T19:39:29.302Z,3.47
2022-08-28T19:42:01.527Z,3.90
2022-08-28T19:44:33.321Z,3.60
2022-08-28T19:47:05.189Z,3.63
2022-08-28T19:49:37.475Z,4.17
2022-08-28T19:52:09.502Z,4.17
2022-08-28T19:54:42.474Z,3.70
2022-08-28T19:57:15.244Z,3.47
2022-08-28T19:59:52.152Z,3.90
2022-08-28T20:02:23.935Z,3.90
2022-08-28T20:04:55.779Z,3.70
2022-08-28T20:07:27.518Z,3.93
2022-08-28T20:09:59.291Z,4.60
2022-08-28T20:12:31.030Z,4.07
2022-08-28T20:15:03.812Z,3.87
2022-08-28T20:17:43.868Z,3.87
2022-08-28T20:20:23.059Z,4.00
2022-08-28T20:22:57.389Z,4.20
2022-08-28T20:25:29.336Z,3.63
2022-08-28T20:28:01.958Z,4.20
2022-08-28T20:30:33.969Z,3.97
2022-08-28T20:33:06.283Z,3.90
2022-08-28T20:35:38.430Z,3.60
2022-08-28T20:38:11.229Z,4.13
2022-08-28T20:40:43.170Z,4.30
2022-08-28T20:43:14.917Z,3.80
2022-08-28T20:45:46.665Z,3.90
2022-08-28T20:48:19.482Z,4.17
2022-08-28T20:50:51.378Z,4.03
2022-08-28T20:53:37.473Z,4.20
2022-08-28T20:56:10.513Z,4.40
2022-08-28T20:58:42.271Z,4.17
2022-08-28T21:01:14.158Z,4.70
2022-08-28T21:03:46.406Z,4.67
2022-08-28T21:06:18.328Z,4.13
2022-08-28T21:08:50.279Z,4.80
2022-08-28T21:11:26.828Z,4.13
2022-08-28T21:13:58.609Z,4.40
2022-08-28T21:16:30.507Z,4.70
2022-08-28T21:19:15.794Z,4.30
2022-08-28T21:21:48.303Z,5.00
2022-08-28T21:24:21.014Z,4.50
2022-08-28T21:26:53.439Z,4.50
2022-08-28T21:29:25.171Z,4.63
2022-08-28T21:31:56.924Z,4.53
2022-08-28T21:34:28.995Z,4.20
2022-08-28T21:37:00.724Z,4.00
2022-08-28T21:39:32.656Z,5.10
2022-08-28T21:42:04.438Z,4.57
2022-08-28T21:44:37.352Z,5.10
2022-08-28T21:47:09.112Z,4.13
2022-08-28T21:49:40.918Z,4.30
2022-08-28T21:52:12.676Z,4.30
2022-08-28T21:54:44.419Z,5.00
2022-08-28T21:57:16.551Z,4.27
2022-08-28T21:59:48.309Z,4.30
2022-08-28T22:02:20.737Z,4.27
2022-08-28T22:04:52.797Z,5.20
2022-08-28T22:07:25.175Z,4.90
2022-08-28T22:09:56.944Z,5.10
2022-08-28T22:12:28.726Z,4.90
2022-08-28T22:15:05.368Z,4.37
2022-08-28T22:17:37.206Z,4.43
2022-08-28T22:20:09.871Z,4.37
2022-08-28T22:23:00.139Z,4.90
2022-08-28T22:25:31.892Z,4.97
2022-08-28T22:28:12.626Z,4.03
2022-08-28T22:30:44.427Z,4.70
2022-08-28T22:33:16.275Z,4.80
2022-08-28T22:35:52.325Z,5.20
2022-08-28T22:38:25.396Z,4.87
2022-08-28T22:40:58.012Z,4.90
2022-08-28T22:43:29.948Z,4.90
2022-08-28T22:46:02.281Z,5.27
2022-08-28T22:48:34.805Z,4.80
2022-08-28T22:51:13.479Z,4.60
2022-08-28T22:53:46.712Z,5.03
2022-08-28T22:56:18.514Z,4.40
2022-08-28T22:58:50.410Z,5.27
2022-08-28T23:01:24.783Z,5.40
2022-08-28T23:03:57.682Z,5.00
2022-08-28T23:06:30.671Z,5.87
2022-08-28T23:09:02.428Z,5.50
2022-08-28T23:11:35.795Z,5.67
2022-08-28T23:14:07.560Z,5.50
2022-08-28T23:16:39.592Z,5.60
2022-08-28T23:19:13.267Z,5.50
2022-08-28T23:21:45.478Z,5.77
2022-08-28T23:24:17.928Z,5.50
2022-08-28T23:26:49.655Z,4.90
2022-08-28T23:29:21.392Z,5.83
2022-08-28T23:31:53.199Z,5.93
2022-08-28T23:34:25.112Z,5.87
2022-08-28T23:36:56.992Z,5.77
2022-08-28T23:39:30.412Z,6.30
2022-08-28T23:42:02.257Z,5.67
2022-08-28T23:44:34.017Z,6.27
2022-08-28T23:47:05.810Z,5.90
2022-08-28T23:49:42.626Z,5.80
2022-08-28T23:52:14.907Z,5.90
2022-08-28T23:54:47.311Z,6.27
2022-08-28T23:57:19.037Z,6.30
2022-08-28T23:59:51.467Z,6.53
